sensor_id;sensor_type;location;lat;lon;timestamp;temperature;humidity
10722;DHT22;5412;59.450;18.124;2022-07-22T00:00:06;22.50;99.90
10722;DHT22;5412;59.450;18.124;2022-07-22T00:02:32;22.70;99.90
10722;DHT22;5412;59.450;18.124;2022-07-22T00:04:58;22.70;99.90
10722;DHT22;5412;59.450;18.124;2022-07-22T00:07:24;22.70;99.90
10722;DHT22;5412;59.450;18.124;2022-07-22T00:09:49;22.70;99.90
10722;DHT22;5412;59.450;18.124;2022-07-22T00:12:15;22.60;99.90
10722;DHT22;5412;59.450;18.124;2022-07-22T00:14:41;22.70;99.90
10722;DHT22;5412;59.450;18.124;2022-07-22T00:17:06;22.70;99.90
10722;DHT22;5412;59.450;18.124;2022-07-22T00:19:32;22.70;99.90
10722;DHT22;5412;59.450;18.124;2022-07-22T00:21:58;22.70;99.90
10722;DHT22;5412;59.450;18.124;2022-07-22T00:24:24;22.70;99.90
10722;DHT22;5412;59.450;18.124;2022-07-22T00:26:50;22.70;99.90
10722;DHT22;5412;59.450;18.124;2022-07-22T00:29:15;22.70;99.90
10722;DHT22;5412;59.450;18.124;2022-07-22T00:31:41;22.40;99.90
10722;DHT22;5412;59.450;18.124;2022-07-22T00:34:06;22.20;99.90
10722;DHT22;5412;59.450;18.124;2022-07-22T00:36:32;22.20;99.90
10722;DHT22;5412;59.450;18.124;2022-07-22T00:38:58;22.10;99.90
10722;DHT22;5412;59.450;18.124;2022-07-22T00:41:24;22.10;99.90
10722;DHT22;5412;59.450;18.124;2022-07-22T00:44:02;22.10;99.90
10722;DHT22;5412;59.450;18.124;2022-07-22T00:46:29;22.00;99.90
10722;DHT22;5412;59.450;18.124;2022-07-22T00:48:55;22.10;99.90
10722;DHT22;5412;59.450;18.124;2022-07-22T00:51:23;22.10;99.90
10722;DHT22;5412;59.450;18.124;2022-07-22T00:53:49;22.10;99.90
10722;DHT22;5412;59.450;18.124;2022-07-22T00:56:16;21.90;99.90
10722;DHT22;5412;59.450;18.124;2022-07-22T00:58:43;22.10;99.90
10722;DHT22;5412;59.450;18.124;2022-07-22T01:01:09;22.10;99.90
10722;DHT22;5412;59.450;18.124;2022-07-22T01:03:35;22.20;99.90
10722;DHT22;5412;59.450;18.124;2022-07-22T01:06:01;22.30;99.90
10722;DHT22;5412;59.450;18.124;2022-07-22T01:08:27;22.30;99.90
10722;DHT22;5412;59.450;18.124;2022-07-22T01:10:52;22.30;99.90
10722;DHT22;5412;59.450;18.124;2022-07-22T01:13:18;22.20;99.90
10722;DHT22;5412;59.450;18.124;2022-07-22T01:15:44;22.20;99.90
10722;DHT22;5412;59.450;18.124;2022-07-22T01:18:10;22.20;99.90
10722;DHT22;5412;59.450;18.124;2022-07-22T01:20:36;22.20;99.90
10722;DHT22;5412;59.450;18.124;2022-07-22T01:23:01;22.20;99.90
10722;DHT22;5412;59.450;18.124;2022-07-22T01:25:27;22.30;99.90
10722;DHT22;5412;59.450;18.124;2022-07-22T01:27:53;22.30;99.90
10722;DHT22;5412;59.450;18.124;2022-07-22T01:30:19;22.20;99.90
10722;DHT22;5412;59.450;18.124;2022-07-22T01:32:45;22.20;99.90
10722;DHT22;5412;59.450;18.124;2022-07-22T01:35:11;22.20;99.90
10722;DHT22;5412;59.450;18.124;2022-07-22T01:37:36;22.20;99.90
10722;DHT22;5412;59.450;18.124;2022-07-22T01:40:03;22.20;99.90
10722;DHT22;5412;59.450;18.124;2022-07-22T01:42:30;22.10;99.90
10722;DHT22;5412;59.450;18.124;2022-07-22T01:44:56;22.00;99.90
10722;DHT22;5412;59.450;18.124;2022-07-22T01:47:21;22.00;99.90
10722;DHT22;5412;59.450;18.124;2022-07-22T01:49:47;22.10;99.90
10722;DHT22;5412;59.450;18.124;2022-07-22T01:52:12;21.90;99.90
10722;DHT22;5412;59.450;18.124;2022-07-22T01:54:38;21.90;99.90
10722;DHT22;5412;59.450;18.124;2022-07-22T01:57:04;22.00;99.90
10722;DHT22;5412;59.450;18.124;2022-07-22T01:59:29;21.90;99.90
10722;DHT22;5412;59.450;18.124;2022-07-22T02:01:55;21.90;99.90
10722;DHT22;5412;59.450;18.124;2022-07-22T02:04:20;21.80;99.90
10722;DHT22;5412;59.450;18.124;2022-07-22T02:06:46;21.80;99.90
10722;DHT22;5412;59.450;18.124;2022-07-22T02:09:12;21.80;99.90
10722;DHT22;5412;59.450;18.124;2022-07-22T02:11:38;21.70;99.90
10722;DHT22;5412;59.450;18.124;2022-07-22T02:14:04;21.70;99.90
10722;DHT22;5412;59.450;18.124;2022-07-22T02:16:29;21.60;99.90
10722;DHT22;5412;59.450;18.124;2022-07-22T02:18:55;21.70;99.90
10722;DHT22;5412;59.450;18.124;2022-07-22T02:21:21;21.70;99.90
10722;DHT22;5412;59.450;18.124;2022-07-22T02:23:46;21.60;99.90
10722;DHT22;5412;59.450;18.124;2022-07-22T02:26:12;21.50;99.90
10722;DHT22;5412;59.450;18.124;2022-07-22T02:28:38;21.50;99.90
10722;DHT22;5412;59.450;18.124;2022-07-22T02:31:03;21.40;99.90
10722;DHT22;5412;59.450;18.124;2022-07-22T02:33:29;21.40;99.90
10722;DHT22;5412;59.450;18.124;2022-07-22T02:35:55;21.30;99.90
10722;DHT22;5412;59.450;18.124;2022-07-22T02:38:21;21.30;99.90
10722;DHT22;5412;59.450;18.124;2022-07-22T02:40:47;21.30;99.90
10722;DHT22;5412;59.450;18.124;2022-07-22T02:43:12;21.30;99.90
10722;DHT22;5412;59.450;18.124;2022-07-22T02:45:38;21.40;99.90
10722;DHT22;5412;59.450;18.124;2022-07-22T02:48:04;21.40;99.90
10722;DHT22;5412;59.450;18.124;2022-07-22T02:50:30;21.30;99.90
10722;DHT22;5412;59.450;18.124;2022-07-22T02:52:58;21.10;99.90
10722;DHT22;5412;59.450;18.124;2022-07-22T02:55:23;21.30;99.90
10722;DHT22;5412;59.450;18.124;2022-07-22T02:57:49;21.30;99.90
10722;DHT22;5412;59.450;18.124;2022-07-22T03:00:15;21.30;99.90
10722;DHT22;5412;59.450;18.124;2022-07-22T03:02:42;21.40;99.90
10722;DHT22;5412;59.450;18.124;2022-07-22T03:05:08;21.40;99.90
10722;DHT22;5412;59.450;18.124;2022-07-22T03:07:34;21.30;99.90
10722;DHT22;5412;59.450;18.124;2022-07-22T03:09:59;21.30;99.90
10722;DHT22;5412;59.450;18.124;2022-07-22T03:12:25;21.30;99.90
10722;DHT22;5412;59.450;18.124;2022-07-22T03:14:51;21.30;99.90
10722;DHT22;5412;59.450;18.124;2022-07-22T03:17:16;21.40;99.90
10722;DHT22;5412;59.450;18.124;2022-07-22T03:19:42;21.30;99.90
10722;DHT22;5412;59.450;18.124;2022-07-22T03:22:08;21.30;99.90
10722;DHT22;5412;59.450;18.124;2022-07-22T03:24:34;21.20;99.90
10722;DHT22;5412;59.450;18.124;2022-07-22T03:26:59;21.20;99.90
10722;DHT22;5412;59.450;18.124;2022-07-22T03:29:25;21.20;99.90
10722;DHT22;5412;59.450;18.124;2022-07-22T03:31:51;21.20;99.90
10722;DHT22;5412;59.450;18.124;2022-07-22T03:34:16;21.30;99.90
10722;DHT22;5412;59.450;18.124;2022-07-22T03:36:42;21.30;99.90
10722;DHT22;5412;59.450;18.124;2022-07-22T03:39:08;21.30;99.90
10722;DHT22;5412;59.450;18.124;2022-07-22T03:41:33;21.20;99.90
10722;DHT22;5412;59.450;18.124;2022-07-22T03:43:59;21.20;99.90
10722;DHT22;5412;59.450;18.124;2022-07-22T03:46:25;21.10;99.90
10722;DHT22;5412;59.450;18.124;2022-07-22T03:48:50;21.10;99.90
10722;DHT22;5412;59.450;18.124;2022-07-22T03:51:16;21.10;99.90
10722;DHT22;5412;59.450;18.124;2022-07-22T03:53:41;21.10;99.90
10722;DHT22;5412;59.450;18.124;2022-07-22T03:56:07;21.00;99.90
10722;DHT22;5412;59.450;18.124;2022-07-22T03:58:33;21.10;99.90
10722;DHT22;5412;59.450;18.124;2022-07-22T04:00:59;21.10;99.90
10722;DHT22;5412;59.450;18.124;2022-07-22T04:03:24;21.20;99.90
10722;DHT22;5412;59.450;18.124;2022-07-22T04:05:50;21.30;99.90
10722;DHT22;5412;59.450;18.124;2022-07-22T04:08:17;21.20;99.90
10722;DHT22;5412;59.450;18.124;2022-07-22T04:10:44;21.10;99.90
10722;DHT22;5412;59.450;18.124;2022-07-22T04:13:10;21.30;99.90
10722;DHT22;5412;59.450;18.124;2022-07-22T04:15:35;22.00;99.90
10722;DHT22;5412;59.450;18.124;2022-07-22T04:18:01;21.30;99.90
10722;DHT22;5412;59.450;18.124;2022-07-22T04:20:27;21.30;99.90
10722;DHT22;5412;59.450;18.124;2022-07-22T04:22:53;21.40;99.90
10722;DHT22;5412;59.450;18.124;2022-07-22T04:25:19;21.40;99.90
10722;DHT22;5412;59.450;18.124;2022-07-22T04:27:44;21.30;99.90
10722;DHT22;5412;59.450;18.124;2022-07-22T04:30:10;21.30;99.90
10722;DHT22;5412;59.450;18.124;2022-07-22T04:32:36;21.10;99.90
10722;DHT22;5412;59.450;18.124;2022-07-22T04:35:02;21.00;99.90
10722;DHT22;5412;59.450;18.124;2022-07-22T04:37:28;21.80;99.90
10722;DHT22;5412;59.450;18.124;2022-07-22T04:39:55;21.20;99.90
10722;DHT22;5412;59.450;18.124;2022-07-22T04:42:20;21.10;99.90
10722;DHT22;5412;59.450;18.124;2022-07-22T04:44:46;21.20;99.90
10722;DHT22;5412;59.450;18.124;2022-07-22T04:47:12;21.20;99.90
10722;DHT22;5412;59.450;18.124;2022-07-22T04:49:37;21.10;99.90
10722;DHT22;5412;59.450;18.124;2022-07-22T04:52:03;21.10;99.90
10722;DHT22;5412;59.450;18.124;2022-07-22T04:54:29;21.10;99.90
10722;DHT22;5412;59.450;18.124;2022-07-22T04:56:54;21.10;99.90
10722;DHT22;5412;59.450;18.124;2022-07-22T04:59:20;21.10;99.90
10722;DHT22;5412;59.450;18.124;2022-07-22T05:01:45;21.10;99.90
10722;DHT22;5412;59.450;18.124;2022-07-22T05:04:11;21.00;99.90
10722;DHT22;5412;59.450;18.124;2022-07-22T05:06:37;21.10;99.90
10722;DHT22;5412;59.450;18.124;2022-07-22T05:09:02;21.10;99.90
10722;DHT22;5412;59.450;18.124;2022-07-22T05:11:28;21.20;99.90
10722;DHT22;5412;59.450;18.124;2022-07-22T05:13:54;21.10;99.90
10722;DHT22;5412;59.450;18.124;2022-07-22T05:16:19;21.30;99.90
10722;DHT22;5412;59.450;18.124;2022-07-22T05:18:45;21.40;99.90
10722;DHT22;5412;59.450;18.124;2022-07-22T05:21:11;21.50;99.90
10722;DHT22;5412;59.450;18.124;2022-07-22T05:23:36;21.60;99.90
10722;DHT22;5412;59.450;18.124;2022-07-22T05:26:04;21.60;99.90
10722;DHT22;5412;59.450;18.124;2022-07-22T05:28:30;21.60;99.90
10722;DHT22;5412;59.450;18.124;2022-07-22T05:30:55;21.60;99.90
10722;DHT22;5412;59.450;18.124;2022-07-22T05:33:21;21.50;99.90
10722;DHT22;5412;59.450;18.124;2022-07-22T05:35:47;21.50;99.90
10722;DHT22;5412;59.450;18.124;2022-07-22T05:38:12;21.60;99.90
10722;DHT22;5412;59.450;18.124;2022-07-22T05:40:38;21.70;99.90
10722;DHT22;5412;59.450;18.124;2022-07-22T05:43:04;21.80;99.90
10722;DHT22;5412;59.450;18.124;2022-07-22T05:45:30;21.90;99.90
10722;DHT22;5412;59.450;18.124;2022-07-22T05:47:55;22.00;99.90
10722;DHT22;5412;59.450;18.124;2022-07-22T05:50:21;22.20;99.90
10722;DHT22;5412;59.450;18.124;2022-07-22T05:52:47;22.50;99.90
10722;DHT22;5412;59.450;18.124;2022-07-22T05:55:12;22.60;99.90
10722;DHT22;5412;59.450;18.124;2022-07-22T05:57:38;22.80;99.90
10722;DHT22;5412;59.450;18.124;2022-07-22T06:00:04;22.90;99.90
10722;DHT22;5412;59.450;18.124;2022-07-22T06:02:30;22.90;99.90
10722;DHT22;5412;59.450;18.124;2022-07-22T06:04:56;22.90;99.90
10722;DHT22;5412;59.450;18.124;2022-07-22T06:07:22;23.00;99.90
10722;DHT22;5412;59.450;18.124;2022-07-22T06:09:47;23.00;99.90
10722;DHT22;5412;59.450;18.124;2022-07-22T06:12:13;23.00;99.90
10722;DHT22;5412;59.450;18.124;2022-07-22T06:14:39;23.00;99.90
10722;DHT22;5412;59.450;18.124;2022-07-22T06:17:04;23.20;99.90
10722;DHT22;5412;59.450;18.124;2022-07-22T06:19:30;23.20;99.90
10722;DHT22;5412;59.450;18.124;2022-07-22T06:21:57;23.40;99.90
10722;DHT22;5412;59.450;18.124;2022-07-22T06:24:23;22.50;99.90
10722;DHT22;5412;59.450;18.124;2022-07-22T06:26:48;23.50;99.90
10722;DHT22;5412;59.450;18.124;2022-07-22T06:29:14;23.50;99.90
10722;DHT22;5412;59.450;18.124;2022-07-22T06:31:40;23.60;99.90
10722;DHT22;5412;59.450;18.124;2022-07-22T06:34:06;23.40;99.90
10722;DHT22;5412;59.450;18.124;2022-07-22T06:36:32;23.40;99.90
10722;DHT22;5412;59.450;18.124;2022-07-22T06:38:58;23.40;99.90
10722;DHT22;5412;59.450;18.124;2022-07-22T06:41:24;23.50;99.90
10722;DHT22;5412;59.450;18.124;2022-07-22T06:43:49;23.40;99.90
10722;DHT22;5412;59.450;18.124;2022-07-22T06:46:15;23.60;99.90
10722;DHT22;5412;59.450;18.124;2022-07-22T06:48:41;23.60;99.90
10722;DHT22;5412;59.450;18.124;2022-07-22T06:51:06;23.80;99.90
10722;DHT22;5412;59.450;18.124;2022-07-22T06:53:32;23.70;99.90
10722;DHT22;5412;59.450;18.124;2022-07-22T06:55:58;23.80;99.90
10722;DHT22;5412;59.450;18.124;2022-07-22T06:58:24;24.00;99.90
10722;DHT22;5412;59.450;18.124;2022-07-22T07:00:50;24.10;99.90
10722;DHT22;5412;59.450;18.124;2022-07-22T07:03:15;24.20;99.90
10722;DHT22;5412;59.450;18.124;2022-07-22T07:05:41;24.20;99.90
10722;DHT22;5412;59.450;18.124;2022-07-22T07:08:07;24.20;99.90
10722;DHT22;5412;59.450;18.124;2022-07-22T07:10:33;24.20;99.90
10722;DHT22;5412;59.450;18.124;2022-07-22T07:12:59;24.30;99.90
10722;DHT22;5412;59.450;18.124;2022-07-22T07:15:25;24.30;99.90
10722;DHT22;5412;59.450;18.124;2022-07-22T07:17:55;24.10;99.90
10722;DHT22;5412;59.450;18.124;2022-07-22T07:20:22;24.00;99.90
10722;DHT22;5412;59.450;18.124;2022-07-22T07:22:47;23.90;99.90
10722;DHT22;5412;59.450;18.124;2022-07-22T07:25:14;23.90;99.90
10722;DHT22;5412;59.450;18.124;2022-07-22T07:27:40;23.90;99.90
10722;DHT22;5412;59.450;18.124;2022-07-22T07:30:06;24.00;99.90
10722;DHT22;5412;59.450;18.124;2022-07-22T07:32:32;24.00;99.90
10722;DHT22;5412;59.450;18.124;2022-07-22T07:34:58;24.00;99.90
10722;DHT22;5412;59.450;18.124;2022-07-22T07:37:23;24.10;99.90
10722;DHT22;5412;59.450;18.124;2022-07-22T07:39:49;23.90;99.90
10722;DHT22;5412;59.450;18.124;2022-07-22T07:42:14;24.10;99.90
10722;DHT22;5412;59.450;18.124;2022-07-22T07:44:40;24.30;99.90
10722;DHT22;5412;59.450;18.124;2022-07-22T07:47:06;24.30;99.90
10722;DHT22;5412;59.450;18.124;2022-07-22T07:49:32;24.40;99.90
10722;DHT22;5412;59.450;18.124;2022-07-22T07:51:57;24.50;99.90
10722;DHT22;5412;59.450;18.124;2022-07-22T07:54:23;24.70;99.90
10722;DHT22;5412;59.450;18.124;2022-07-22T07:56:49;24.60;99.90
10722;DHT22;5412;59.450;18.124;2022-07-22T07:59:14;24.70;99.90
10722;DHT22;5412;59.450;18.124;2022-07-22T08:01:42;24.50;99.90
10722;DHT22;5412;59.450;18.124;2022-07-22T08:04:08;24.40;99.90
10722;DHT22;5412;59.450;18.124;2022-07-22T08:06:33;24.40;99.90
10722;DHT22;5412;59.450;18.124;2022-07-22T08:08:59;24.40;99.90
10722;DHT22;5412;59.450;18.124;2022-07-22T08:11:25;24.20;99.90
10722;DHT22;5412;59.450;18.124;2022-07-22T08:13:50;24.10;99.90
10722;DHT22;5412;59.450;18.124;2022-07-22T08:16:16;23.90;99.90
10722;DHT22;5412;59.450;18.124;2022-07-22T08:18:42;23.60;99.90
10722;DHT22;5412;59.450;18.124;2022-07-22T08:21:07;23.70;99.90
10722;DHT22;5412;59.450;18.124;2022-07-22T08:23:34;23.70;99.90
10722;DHT22;5412;59.450;18.124;2022-07-22T08:25:59;23.50;99.90
10722;DHT22;5412;59.450;18.124;2022-07-22T08:28:25;23.30;99.90
10722;DHT22;5412;59.450;18.124;2022-07-22T08:30:52;23.20;99.90
10722;DHT22;5412;59.450;18.124;2022-07-22T08:33:17;23.40;99.90
10722;DHT22;5412;59.450;18.124;2022-07-22T08:35:44;23.20;99.90
10722;DHT22;5412;59.450;18.124;2022-07-22T08:38:11;23.20;99.90
10722;DHT22;5412;59.450;18.124;2022-07-22T08:40:37;23.20;99.90
10722;DHT22;5412;59.450;18.124;2022-07-22T08:43:03;23.10;99.90
10722;DHT22;5412;59.450;18.124;2022-07-22T08:45:31;23.30;99.90
10722;DHT22;5412;59.450;18.124;2022-07-22T08:47:57;23.10;99.90
10722;DHT22;5412;59.450;18.124;2022-07-22T08:50:24;22.80;99.90
10722;DHT22;5412;59.450;18.124;2022-07-22T08:52:50;22.90;99.90
10722;DHT22;5412;59.450;18.124;2022-07-22T08:55:16;22.50;99.90
10722;DHT22;5412;59.450;18.124;2022-07-22T08:57:46;22.50;99.90
10722;DHT22;5412;59.450;18.124;2022-07-22T09:00:16;22.50;99.90
10722;DHT22;5412;59.450;18.124;2022-07-22T09:02:42;22.40;99.90
10722;DHT22;5412;59.450;18.124;2022-07-22T09:05:11;22.30;99.90
10722;DHT22;5412;59.450;18.124;2022-07-22T09:07:41;22.40;99.90
10722;DHT22;5412;59.450;18.124;2022-07-22T09:10:09;22.40;99.90
10722;DHT22;5412;59.450;18.124;2022-07-22T09:13:00;22.50;99.90
10722;DHT22;5412;59.450;18.124;2022-07-22T09:15:30;22.50;99.90
10722;DHT22;5412;59.450;18.124;2022-07-22T09:17:58;22.70;99.90
10722;DHT22;5412;59.450;18.124;2022-07-22T09:20:25;22.90;99.90
10722;DHT22;5412;59.450;18.124;2022-07-22T09:22:51;23.10;99.90
10722;DHT22;5412;59.450;18.124;2022-07-22T09:27:53;23.30;99.90
10722;DHT22;5412;59.450;18.124;2022-07-22T09:30:24;23.20;99.90
10722;DHT22;5412;59.450;18.124;2022-07-22T09:32:52;23.40;99.90
10722;DHT22;5412;59.450;18.124;2022-07-22T09:35:18;23.20;99.90
10722;DHT22;5412;59.450;18.124;2022-07-22T09:37:52;23.20;99.90
10722;DHT22;5412;59.450;18.124;2022-07-22T09:40:20;23.10;99.90
10722;DHT22;5412;59.450;18.124;2022-07-22T09:42:48;23.30;99.90
10722;DHT22;5412;59.450;18.124;2022-07-22T09:45:14;23.40;99.90
10722;DHT22;5412;59.450;18.124;2022-07-22T09:47:42;23.60;99.90
10722;DHT22;5412;59.450;18.124;2022-07-22T09:50:40;23.60;99.90
10722;DHT22;5412;59.450;18.124;2022-07-22T09:53:06;23.60;99.90
10722;DHT22;5412;59.450;18.124;2022-07-22T09:55:31;23.80;99.90
10722;DHT22;5412;59.450;18.124;2022-07-22T09:57:59;23.90;99.90
10722;DHT22;5412;59.450;18.124;2022-07-22T10:00:26;23.90;99.90
10722;DHT22;5412;59.450;18.124;2022-07-22T10:02:55;23.80;99.90
10722;DHT22;5412;59.450;18.124;2022-07-22T10:05:24;23.60;99.90
10722;DHT22;5412;59.450;18.124;2022-07-22T10:07:50;23.50;99.90
10722;DHT22;5412;59.450;18.124;2022-07-22T10:10:27;23.40;99.90
10722;DHT22;5412;59.450;18.124;2022-07-22T10:12:55;23.30;99.90
10722;DHT22;5412;59.450;18.124;2022-07-22T10:15:22;23.20;99.90
10722;DHT22;5412;59.450;18.124;2022-07-22T10:17:50;22.80;99.90
10722;DHT22;5412;59.450;18.124;2022-07-22T10:20:22;22.80;99.90
10722;DHT22;5412;59.450;18.124;2022-07-22T10:22:53;22.70;99.90
10722;DHT22;5412;59.450;18.124;2022-07-22T10:25:21;22.70;99.90
10722;DHT22;5412;59.450;18.124;2022-07-22T10:27:57;22.50;99.90
10722;DHT22;5412;59.450;18.124;2022-07-22T10:33:15;22.20;99.90
10722;DHT22;5412;59.450;18.124;2022-07-22T10:35:55;22.10;99.90
10722;DHT22;5412;59.450;18.124;2022-07-22T10:38:22;22.20;99.90
10722;DHT22;5412;59.450;18.124;2022-07-22T10:40:52;22.00;99.90
10722;DHT22;5412;59.450;18.124;2022-07-22T10:43:26;21.70;99.90
10722;DHT22;5412;59.450;18.124;2022-07-22T10:45:56;21.70;99.90
10722;DHT22;5412;59.450;18.124;2022-07-22T10:48:25;21.70;99.90
10722;DHT22;5412;59.450;18.124;2022-07-22T10:50:53;21.70;99.90
10722;DHT22;5412;59.450;18.124;2022-07-22T10:55:59;21.70;99.90
10722;DHT22;5412;59.450;18.124;2022-07-22T11:01:03;21.70;99.90
10722;DHT22;5412;59.450;18.124;2022-07-22T11:03:30;21.60;99.90
10722;DHT22;5412;59.450;18.124;2022-07-22T11:05:56;21.70;99.90
10722;DHT22;5412;59.450;18.124;2022-07-22T11:08:22;21.70;99.90
10722;DHT22;5412;59.450;18.124;2022-07-22T11:10:49;21.40;99.90
10722;DHT22;5412;59.450;18.124;2022-07-22T11:13:34;21.30;99.90
10722;DHT22;5412;59.450;18.124;2022-07-22T11:16:18;21.30;99.90
10722;DHT22;5412;59.450;18.124;2022-07-22T11:18:48;21.20;99.90
10722;DHT22;5412;59.450;18.124;2022-07-22T11:21:16;21.30;99.90
10722;DHT22;5412;59.450;18.124;2022-07-22T11:23:42;21.20;99.90
10722;DHT22;5412;59.450;18.124;2022-07-22T11:26:10;21.20;99.90
10722;DHT22;5412;59.450;18.124;2022-07-22T11:28:40;21.20;99.90
10722;DHT22;5412;59.450;18.124;2022-07-22T11:31:07;21.10;99.90
10722;DHT22;5412;59.450;18.124;2022-07-22T11:33:33;21.20;99.90
10722;DHT22;5412;59.450;18.124;2022-07-22T11:36:06;21.20;99.90
10722;DHT22;5412;59.450;18.124;2022-07-22T11:38:42;21.30;99.90
10722;DHT22;5412;59.450;18.124;2022-07-22T11:41:08;21.30;99.90
10722;DHT22;5412;59.450;18.124;2022-07-22T11:44:01;21.50;99.90
10722;DHT22;5412;59.450;18.124;2022-07-22T11:46:27;21.50;99.90
10722;DHT22;5412;59.450;18.124;2022-07-22T11:48:53;21.40;99.90
10722;DHT22;5412;59.450;18.124;2022-07-22T11:51:19;21.40;99.90
10722;DHT22;5412;59.450;18.124;2022-07-22T11:53:45;21.50;99.90
10722;DHT22;5412;59.450;18.124;2022-07-22T11:56:11;21.80;99.90
10722;DHT22;5412;59.450;18.124;2022-07-22T11:58:38;21.90;99.90
10722;DHT22;5412;59.450;18.124;2022-07-22T12:01:09;21.80;99.90
10722;DHT22;5412;59.450;18.124;2022-07-22T12:03:37;21.70;99.90
10722;DHT22;5412;59.450;18.124;2022-07-22T12:06:05;21.60;99.90
10722;DHT22;5412;59.450;18.124;2022-07-22T12:08:33;21.50;99.90
10722;DHT22;5412;59.450;18.124;2022-07-22T12:11:00;21.50;99.90
10722;DHT22;5412;59.450;18.124;2022-07-22T12:13:31;21.40;99.90
10722;DHT22;5412;59.450;18.124;2022-07-22T12:15:57;21.20;99.90
10722;DHT22;5412;59.450;18.124;2022-07-22T12:18:25;21.20;99.90
10722;DHT22;5412;59.450;18.124;2022-07-22T12:20:54;21.10;99.90
10722;DHT22;5412;59.450;18.124;2022-07-22T12:23:22;21.10;99.90
10722;DHT22;5412;59.450;18.124;2022-07-22T12:25:55;21.10;99.90
10722;DHT22;5412;59.450;18.124;2022-07-22T12:28:21;21.20;99.90
10722;DHT22;5412;59.450;18.124;2022-07-22T12:30:47;21.40;99.90
10722;DHT22;5412;59.450;18.124;2022-07-22T12:33:15;21.30;99.90
10722;DHT22;5412;59.450;18.124;2022-07-22T12:35:41;21.40;99.90
10722;DHT22;5412;59.450;18.124;2022-07-22T12:38:08;21.40;99.90
10722;DHT22;5412;59.450;18.124;2022-07-22T12:40:34;21.50;99.90
10722;DHT22;5412;59.450;18.124;2022-07-22T12:43:05;21.50;99.90
10722;DHT22;5412;59.450;18.124;2022-07-22T12:45:33;21.20;99.90
10722;DHT22;5412;59.450;18.124;2022-07-22T12:50:32;21.00;99.90
10722;DHT22;5412;59.450;18.124;2022-07-22T12:53:01;20.90;99.90
10722;DHT22;5412;59.450;18.124;2022-07-22T12:55:32;20.90;99.90
10722;DHT22;5412;59.450;18.124;2022-07-22T12:57:58;20.90;99.90
10722;DHT22;5412;59.450;18.124;2022-07-22T13:00:27;21.00;99.90
10722;DHT22;5412;59.450;18.124;2022-07-22T13:02:53;21.30;99.90
10722;DHT22;5412;59.450;18.124;2022-07-22T13:05:19;21.40;99.90
10722;DHT22;5412;59.450;18.124;2022-07-22T13:07:45;21.40;99.90
10722;DHT22;5412;59.450;18.124;2022-07-22T13:10:12;21.20;99.90
10722;DHT22;5412;59.450;18.124;2022-07-22T13:12:38;21.40;99.90
10722;DHT22;5412;59.450;18.124;2022-07-22T13:15:05;21.30;99.90
10722;DHT22;5412;59.450;18.124;2022-07-22T13:17:31;21.20;99.90
10722;DHT22;5412;59.450;18.124;2022-07-22T13:19:57;21.20;99.90
10722;DHT22;5412;59.450;18.124;2022-07-22T13:22:23;21.20;99.90
10722;DHT22;5412;59.450;18.124;2022-07-22T13:24:48;21.00;99.90
10722;DHT22;5412;59.450;18.124;2022-07-22T13:27:14;20.90;99.90
10722;DHT22;5412;59.450;18.124;2022-07-22T13:29:40;20.80;99.90
10722;DHT22;5412;59.450;18.124;2022-07-22T13:32:06;20.90;99.90
10722;DHT22;5412;59.450;18.124;2022-07-22T13:34:32;20.80;99.90
10722;DHT22;5412;59.450;18.124;2022-07-22T13:36:57;20.90;99.90
10722;DHT22;5412;59.450;18.124;2022-07-22T13:39:23;20.80;99.90
10722;DHT22;5412;59.450;18.124;2022-07-22T13:41:49;20.90;99.90
10722;DHT22;5412;59.450;18.124;2022-07-22T13:44:15;20.80;99.90
10722;DHT22;5412;59.450;18.124;2022-07-22T13:46:40;20.80;99.90
10722;DHT22;5412;59.450;18.124;2022-07-22T13:49:06;20.90;99.90
10722;DHT22;5412;59.450;18.124;2022-07-22T13:51:32;21.00;99.90
10722;DHT22;5412;59.450;18.124;2022-07-22T13:53:58;20.90;99.90
10722;DHT22;5412;59.450;18.124;2022-07-22T13:56:23;21.00;99.90
10722;DHT22;5412;59.450;18.124;2022-07-22T13:58:49;21.10;99.90
10722;DHT22;5412;59.450;18.124;2022-07-22T14:01:15;21.20;99.90
10722;DHT22;5412;59.450;18.124;2022-07-22T14:03:41;21.10;99.90
10722;DHT22;5412;59.450;18.124;2022-07-22T14:06:07;21.10;99.90
10722;DHT22;5412;59.450;18.124;2022-07-22T14:08:35;21.20;99.90
10722;DHT22;5412;59.450;18.124;2022-07-22T14:11:01;21.30;99.90
10722;DHT22;5412;59.450;18.124;2022-07-22T14:13:27;21.40;99.90
10722;DHT22;5412;59.450;18.124;2022-07-22T14:15:52;21.30;99.90
10722;DHT22;5412;59.450;18.124;2022-07-22T14:18:18;21.10;99.90
10722;DHT22;5412;59.450;18.124;2022-07-22T14:20:43;21.00;99.90
10722;DHT22;5412;59.450;18.124;2022-07-22T14:23:09;21.00;99.90
10722;DHT22;5412;59.450;18.124;2022-07-22T14:25:36;21.10;99.90
10722;DHT22;5412;59.450;18.124;2022-07-22T14:28:03;21.10;99.90
10722;DHT22;5412;59.450;18.124;2022-07-22T14:30:29;20.90;99.90
10722;DHT22;5412;59.450;18.124;2022-07-22T14:32:55;20.70;99.90
10722;DHT22;5412;59.450;18.124;2022-07-22T14:35:21;20.60;99.90
10722;DHT22;5412;59.450;18.124;2022-07-22T14:37:47;20.50;99.90
10722;DHT22;5412;59.450;18.124;2022-07-22T14:40:12;20.40;99.90
10722;DHT22;5412;59.450;18.124;2022-07-22T14:42:38;20.30;99.90
10722;DHT22;5412;59.450;18.124;2022-07-22T14:45:05;20.30;99.90
10722;DHT22;5412;59.450;18.124;2022-07-22T14:47:31;20.30;99.90
10722;DHT22;5412;59.450;18.124;2022-07-22T14:49:56;20.50;99.90
10722;DHT22;5412;59.450;18.124;2022-07-22T14:52:22;20.60;99.90
10722;DHT22;5412;59.450;18.124;2022-07-22T14:54:48;20.50;99.90
10722;DHT22;5412;59.450;18.124;2022-07-22T14:57:13;20.60;99.90
10722;DHT22;5412;59.450;18.124;2022-07-22T14:59:40;20.50;99.90
10722;DHT22;5412;59.450;18.124;2022-07-22T15:02:05;20.50;99.90
10722;DHT22;5412;59.450;18.124;2022-07-22T15:04:31;20.40;99.90
10722;DHT22;5412;59.450;18.124;2022-07-22T15:06:57;20.60;99.90
10722;DHT22;5412;59.450;18.124;2022-07-22T15:09:23;21.00;99.90
10722;DHT22;5412;59.450;18.124;2022-07-22T15:11:48;21.40;99.90
10722;DHT22;5412;59.450;18.124;2022-07-22T15:14:14;21.60;99.90
10722;DHT22;5412;59.450;18.124;2022-07-22T15:16:40;21.80;99.90
10722;DHT22;5412;59.450;18.124;2022-07-22T15:19:06;21.90;99.90
10722;DHT22;5412;59.450;18.124;2022-07-22T15:21:31;21.90;99.90
10722;DHT22;5412;59.450;18.124;2022-07-22T15:23:57;21.50;99.90
10722;DHT22;5412;59.450;18.124;2022-07-22T15:26:23;21.30;99.90
10722;DHT22;5412;59.450;18.124;2022-07-22T15:28:49;21.00;99.90
10722;DHT22;5412;59.450;18.124;2022-07-22T15:31:16;20.80;99.90
10722;DHT22;5412;59.450;18.124;2022-07-22T15:33:42;20.90;99.90
10722;DHT22;5412;59.450;18.124;2022-07-22T15:36:08;20.80;99.90
10722;DHT22;5412;59.450;18.124;2022-07-22T15:38:35;20.80;99.90